createdAt,value
2019-01-16T00:00:23.451Z,95.55
2019-01-16T00:01:23.320Z,95.24
2019-01-16T00:02:23.319Z,95.55
2019-01-16T00:03:23.289Z,94.97
2019-01-16T00:04:23.340Z,95.14
2019-01-16T00:05:23.289Z,94.72
2019-01-16T00:06:24.076Z,94.93
2019-01-16T00:07:23.287Z,94.52
2019-01-16T00:08:23.267Z,93.69
2019-01-16T00:09:24.248Z,94.10
2019-01-16T00:11:40.635Z,94.10
2019-01-16T00:12:40.614Z,94.10
2019-01-16T00:13:40.592Z,94.31
2019-01-16T00:14:40.714Z,94.52
2019-01-16T00:15:41.368Z,94.21
2019-01-16T00:16:40.572Z,94.31
2019-01-16T00:17:40.628Z,93.90
2019-01-16T00:18:40.775Z,93.79
2019-01-16T00:19:40.568Z,93.79
2019-01-16T00:20:41.521Z,93.90
2019-01-16T00:21:40.621Z,94.21
2019-01-16T00:22:40.536Z,93.79
2019-01-16T00:23:40.610Z,93.79
2019-01-16T00:24:40.591Z,93.28
2019-01-16T00:25:40.595Z,93.13
2019-01-16T00:26:40.554Z,93.28
2019-01-16T00:27:41.411Z,93.28
2019-01-16T00:28:40.540Z,93.28
2019-01-16T00:29:40.582Z,93.07
2019-01-16T00:30:40.565Z,93.69
2019-01-16T00:31:40.491Z,93.69
2019-01-16T00:32:40.497Z,93.54
2019-01-16T00:33:41.379Z,93.07
2019-01-16T00:34:40.872Z,93.28
2019-01-16T00:35:41.073Z,92.82
2019-01-16T00:36:40.876Z,93.18
2019-01-16T00:37:40.405Z,92.76
2019-01-16T00:38:40.358Z,92.97
2019-01-16T00:39:40.355Z,92.82
2019-01-16T00:40:40.320Z,92.86
2019-01-16T00:41:40.372Z,92.93
2019-01-16T00:42:40.320Z,93.13
2019-01-16T00:43:40.296Z,92.51
2019-01-16T00:44:40.287Z,92.72
2019-01-16T00:45:40.285Z,92.61
2019-01-16T00:46:40.346Z,92.41
2019-01-16T00:47:40.284Z,92.31
2019-01-16T00:48:40.321Z,92.27
2019-01-16T00:49:40.300Z,92.41
2019-01-16T00:50:40.283Z,92.61
2019-01-16T00:51:40.237Z,93.13
2019-01-16T00:52:40.288Z,92.82
2019-01-16T00:53:40.950Z,92.41
2019-01-16T00:54:40.229Z,92.10
2019-01-16T00:55:40.231Z,91.89
2019-01-16T00:56:40.274Z,91.79
2019-01-16T00:57:40.164Z,92.21
2019-01-16T00:58:40.156Z,92.21
2019-01-16T00:59:40.172Z,92.61
2019-01-16T01:00:40.121Z,92.72
2019-01-16T01:01:40.109Z,92.47
2019-01-16T01:02:40.165Z,92.47
2019-01-16T01:03:40.127Z,92.68
2019-01-16T01:04:40.108Z,92.68
2019-01-16T01:05:40.117Z,92.72
2019-01-16T01:06:49.464Z,92.78
2019-01-16T01:07:47.118Z,92.61
2019-01-16T01:09:57.443Z,93.30
2019-01-16T01:12:09.337Z,93.71
2019-01-16T01:13:18.412Z,93.85
2019-01-16T01:14:18.950Z,92.88
2019-01-16T01:15:18.957Z,93.30
2019-01-16T01:16:17.979Z,93.13
2019-01-16T01:17:08.522Z,93.13
2019-01-16T01:18:08.734Z,93.24
2019-01-16T01:19:08.543Z,93.13
2019-01-16T01:20:08.510Z,93.65
2019-01-16T01:21:08.487Z,93.60
2019-01-16T01:22:08.559Z,93.50
2019-01-16T01:23:08.497Z,93.30
2019-01-16T01:24:08.457Z,94.02
2019-01-16T01:25:08.434Z,93.60
2019-01-16T01:26:08.463Z,93.60
2019-01-16T01:27:08.397Z,93.40
2019-01-16T01:28:08.414Z,93.09
2019-01-16T01:29:08.451Z,93.19
2019-01-16T01:30:08.441Z,93.19
2019-01-16T01:31:08.425Z,93.24
2019-01-16T01:32:08.376Z,92.99
2019-01-16T01:33:08.412Z,92.88
2019-01-16T01:34:08.354Z,93.09
2019-01-16T01:35:08.467Z,93.30
2019-01-16T01:36:08.366Z,93.30
2019-01-16T01:37:08.374Z,93.40
2019-01-16T01:38:08.335Z,93.40
2019-01-16T01:39:08.340Z,93.19
2019-01-16T01:40:08.345Z,93.19
2019-01-16T01:41:08.467Z,92.88
2019-01-16T01:42:08.255Z,92.88
2019-01-16T01:43:08.262Z,92.88
2019-01-16T01:44:08.287Z,92.47
2019-01-16T01:45:08.254Z,92.68
2019-01-16T01:46:08.264Z,92.37
2019-01-16T01:47:08.208Z,92.99
2019-01-16T01:48:08.204Z,92.68
2019-01-16T01:49:08.223Z,92.47
2019-01-16T01:50:08.232Z,92.68
2019-01-16T01:51:08.163Z,91.64
2019-01-16T01:52:08.165Z,92.47
2019-01-16T01:53:08.153Z,91.64
2019-01-16T01:54:08.142Z,92.02
2019-01-16T01:55:08.141Z,92.94
2019-01-16T01:56:08.127Z,92.12
2019-01-16T01:57:08.123Z,91.50
2019-01-16T01:58:08.092Z,91.19
2019-01-16T01:59:08.087Z,90.67
2019-01-16T02:00:08.099Z,91.40
2019-01-16T02:01:08.099Z,91.40
2019-01-16T02:02:08.115Z,91.09
2019-01-16T02:03:08.042Z,91.40
2019-01-16T02:04:08.043Z,90.88
2019-01-16T02:05:08.066Z,90.99
2019-01-16T02:06:08.044Z,90.99
2019-01-16T02:07:08.002Z,90.99
2019-01-16T02:08:07.974Z,91.09
2019-01-16T02:09:07.973Z,91.30
2019-01-16T02:10:07.983Z,91.09
2019-01-16T02:11:07.997Z,91.50
2019-01-16T02:12:07.980Z,91.19
2019-01-16T02:13:07.944Z,91.30
2019-01-16T02:14:07.928Z,91.40
2019-01-16T02:15:07.923Z,91.30
2019-01-16T02:16:07.947Z,91.60
2019-01-16T02:17:07.934Z,91.50
2019-01-16T02:18:07.900Z,91.71
2019-01-16T02:19:07.901Z,91.71
2019-01-16T02:20:07.877Z,91.19
2019-01-16T02:21:07.867Z,91.50
2019-01-16T02:22:07.894Z,91.50
2019-01-16T02:23:07.825Z,91.19
2019-01-16T02:24:07.950Z,91.40
2019-01-16T02:25:07.845Z,91.50
2019-01-16T02:26:07.843Z,91.30
2019-01-16T02:27:07.825Z,91.13
2019-01-16T02:28:07.862Z,91.40
2019-01-16T02:29:07.775Z,91.71
2019-01-16T02:30:08.451Z,91.71
2019-01-16T02:31:07.739Z,91.40
2019-01-16T02:32:07.842Z,91.40
2019-01-16T02:33:07.816Z,91.30
2019-01-16T02:34:07.747Z,91.81
2019-01-16T02:35:07.714Z,91.40
2019-01-16T02:36:07.677Z,91.30
2019-01-16T02:37:07.855Z,91.71
2019-01-16T02:38:07.674Z,91.60
2019-01-16T02:39:07.675Z,92.02
2019-01-16T02:40:07.658Z,91.71
2019-01-16T02:41:07.643Z,91.81
2019-01-16T02:42:07.671Z,91.44
2019-01-16T02:43:07.651Z,91.91
2019-01-16T02:44:07.629Z,91.71
2019-01-16T02:45:07.680Z,91.91
2019-01-16T02:46:07.615Z,92.06
2019-01-16T02:47:08.551Z,91.81
2019-01-16T02:48:07.595Z,91.40
2019-01-16T02:49:07.560Z,92.12
2019-01-16T02:50:07.538Z,91.50
2019-01-16T02:51:07.537Z,92.06
2019-01-16T02:52:07.561Z,92.43
2019-01-16T02:53:07.520Z,92.47
2019-01-16T02:54:07.501Z,93.05
2019-01-16T02:55:07.538Z,92.74
2019-01-16T02:56:07.479Z,92.78
2019-01-16T02:57:07.491Z,92.78
2019-01-16T02:58:07.475Z,92.88
2019-01-16T02:59:07.516Z,92.47
2019-01-16T03:00:07.417Z,91.96
2019-01-16T03:01:07.495Z,91.54
2019-01-16T03:02:07.438Z,91.85
2019-01-16T03:03:07.409Z,91.85
2019-01-16T03:04:07.491Z,91.71
2019-01-16T03:05:07.538Z,92.12
2019-01-16T03:06:07.418Z,92.33
2019-01-16T03:07:07.427Z,92.02
2019-01-16T03:08:07.355Z,91.81
2019-01-16T03:09:07.446Z,91.75
2019-01-16T03:10:07.349Z,91.85
2019-01-16T03:11:07.374Z,92.57
2019-01-16T03:12:07.380Z,92.78
2019-01-16T03:13:07.318Z,93.30
2019-01-16T03:14:07.327Z,92.99
2019-01-16T03:15:07.279Z,93.09
2019-01-16T03:16:07.288Z,93.91
2019-01-16T03:17:07.345Z,94.53
2019-01-16T03:18:07.284Z,94.32
2019-01-16T03:19:07.260Z,94.74
2019-01-16T03:20:07.249Z,94.78
2019-01-16T03:21:07.222Z,94.95
2019-01-16T03:22:07.221Z,95.09
2019-01-16T03:23:07.253Z,95.92
2019-01-16T03:24:07.225Z,95.25
2019-01-16T03:25:07.192Z,95.40
2019-01-16T03:26:07.202Z,95.61
2019-01-16T03:27:07.260Z,95.20
2019-01-16T03:28:07.303Z,95.92
2019-01-16T03:29:07.135Z,96.49
2019-01-16T03:30:16.507Z,96.44
2019-01-16T03:31:14.709Z,96.44
2019-01-16T03:32:07.114Z,96.74
2019-01-16T03:33:16.156Z,96.02
2019-01-16T03:34:07.089Z,96.84
2019-01-16T03:35:07.093Z,96.74
2019-01-16T03:36:07.065Z,96.74
2019-01-16T03:37:07.098Z,96.53
2019-01-16T03:38:07.047Z,96.44
2019-01-16T03:39:07.089Z,96.74
2019-01-16T03:40:07.039Z,96.23
2019-01-16T03:41:06.996Z,96.33
2019-01-16T03:42:07.038Z,96.37
2019-01-16T03:43:07.018Z,96.74
2019-01-16T03:44:07.011Z,96.27
2019-01-16T03:45:07.084Z,96.44
2019-01-16T03:46:07.029Z,96.48
2019-01-16T03:47:06.946Z,96.58
2019-01-16T03:48:07.116Z,96.58
2019-01-16T03:49:13.179Z,96.58
2019-01-16T03:50:07.903Z,95.92
2019-01-16T03:51:06.919Z,95.92
2019-01-16T03:52:06.904Z,95.81
2019-01-16T03:53:07.029Z,95.92
2019-01-16T03:54:06.850Z,95.81
2019-01-16T03:55:06.890Z,95.30
2019-01-16T03:56:06.843Z,95.45
2019-01-16T03:57:06.870Z,95.45
2019-01-16T03:58:06.859Z,95.76
2019-01-16T03:59:06.805Z,95.71
2019-01-16T04:00:06.863Z,95.50
2019-01-16T04:01:06.826Z,95.24
2019-01-16T04:02:06.830Z,95.20
2019-01-16T04:03:06.787Z,95.40
2019-01-16T04:04:06.785Z,95.86
2019-01-16T04:05:06.827Z,95.14
2019-01-16T04:06:06.745Z,95.30
2019-01-16T04:07:06.758Z,95.34
2019-01-16T04:08:07.511Z,94.62
2019-01-16T04:09:06.723Z,94.93
2019-01-16T04:10:06.710Z,94.72
2019-01-16T04:11:06.782Z,94.31
2019-01-16T04:12:06.674Z,94.21
2019-01-16T04:13:06.694Z,94.78
2019-01-16T04:14:06.707Z,94.82
2019-01-16T04:15:07.822Z,94.62
2019-01-16T04:16:06.725Z,94.00
2019-01-16T04:17:06.777Z,94.17
2019-01-16T04:18:06.620Z,93.85
2019-01-16T04:19:06.609Z,94.42
2019-01-16T04:20:07.207Z,94.42
2019-01-16T04:21:06.823Z,94.17
2019-01-16T04:22:06.602Z,94.21
2019-01-16T04:23:06.571Z,93.79
2019-01-16T04:24:06.568Z,93.24
2019-01-16T04:25:06.735Z,93.49
2019-01-16T04:26:06.527Z,93.24
2019-01-16T04:27:06.574Z,93.18
2019-01-16T04:28:06.544Z,92.97
2019-01-16T04:29:06.507Z,93.18
2019-01-16T04:30:06.521Z,92.41
2019-01-16T04:31:06.561Z,92.76
2019-01-16T04:32:06.882Z,92.86
2019-01-16T04:33:06.469Z,93.69
2019-01-16T04:34:06.514Z,92.82
2019-01-16T04:35:06.454Z,92.82
2019-01-16T04:36:06.505Z,92.86
2019-01-16T04:37:06.451Z,92.93
2019-01-16T04:38:06.420Z,92.55
2019-01-16T04:39:07.016Z,92.55
2019-01-16T04:40:06.393Z,92.51
2019-01-16T04:41:06.449Z,92.66
2019-01-16T04:42:06.416Z,92.72
2019-01-16T04:43:06.411Z,92.86
2019-01-16T04:44:06.416Z,91.94
2019-01-16T04:45:06.380Z,91.22
2019-01-16T04:46:06.468Z,91.28
2019-01-16T04:47:06.376Z,91.63
2019-01-16T04:48:06.316Z,91.69
2019-01-16T04:49:06.332Z,91.79
2019-01-16T04:50:06.351Z,91.52
2019-01-16T04:51:06.404Z,90.97
2019-01-16T04:52:07.058Z,91.58
2019-01-16T04:53:06.339Z,91.38
2019-01-16T04:54:06.320Z,91.52
2019-01-16T04:55:06.301Z,91.11
2019-01-16T04:56:06.287Z,91.11
2019-01-16T04:57:06.230Z,90.80
2019-01-16T04:58:06.277Z,90.59
2019-01-16T04:59:06.288Z,91.17
2019-01-16T05:00:06.300Z,90.91
2019-01-16T05:01:07.028Z,90.59
2019-01-16T05:02:06.222Z,91.07
2019-01-16T05:03:07.523Z,90.39
2019-01-16T05:04:06.229Z,90.59
2019-01-16T05:05:06.153Z,90.28
2019-01-16T05:06:06.157Z,90.45
2019-01-16T05:07:06.146Z,90.66
2019-01-16T05:08:06.132Z,90.35
2019-01-16T05:09:06.124Z,90.04
2019-01-16T05:10:06.154Z,90.14
2019-01-16T05:11:06.151Z,89.73
2019-01-16T05:12:06.076Z,90.14
2019-01-16T05:13:06.241Z,89.73
2019-01-16T05:14:06.164Z,89.42
2019-01-16T05:15:06.021Z,89.42
2019-01-16T05:16:06.101Z,89.83
2019-01-16T05:17:15.128Z,89.32
2019-01-16T05:18:15.166Z,89.52
2019-01-16T05:19:15.156Z,89.32
2019-01-16T05:20:15.211Z,89.01
2019-01-16T05:22:23.982Z,88.70
2019-01-16T05:24:46.532Z,89.01
2019-01-16T05:25:46.530Z,89.01
2019-01-16T05:26:46.488Z,88.90
2019-01-16T05:27:46.499Z,88.49
2019-01-16T05:28:46.539Z,87.77
2019-01-16T05:29:46.447Z,87.87
2019-01-16T05:30:46.461Z,87.26
2019-01-16T05:31:46.471Z,87.26
2019-01-16T05:32:46.459Z,87.77
2019-01-16T05:33:46.475Z,87.26
2019-01-16T05:34:47.362Z,87.05
2019-01-16T05:35:46.459Z,87.46
2019-01-16T05:36:46.421Z,87.46
2019-01-16T05:37:46.657Z,87.87
2019-01-16T05:38:46.374Z,87.15
2019-01-16T05:39:46.393Z,87.05
2019-01-16T05:40:46.400Z,86.94
2019-01-16T05:41:46.334Z,87.15
2019-01-16T05:42:46.527Z,87.05
2019-01-16T05:43:46.399Z,87.05
2019-01-16T05:44:46.324Z,86.94
2019-01-16T05:45:46.331Z,86.84
2019-01-16T05:46:46.304Z,86.12
2019-01-16T05:47:46.291Z,86.02
2019-01-16T05:48:46.306Z,86.26
2019-01-16T05:49:46.900Z,86.22
2019-01-16T05:50:46.249Z,85.91
2019-01-16T05:51:46.246Z,85.71
2019-01-16T05:52:46.197Z,85.50
2019-01-16T05:53:46.207Z,85.71
2019-01-16T05:54:46.305Z,85.60
2019-01-16T05:55:46.228Z,85.91
2019-01-16T05:56:46.237Z,85.50
2019-01-16T05:57:46.230Z,85.60
2019-01-16T05:58:46.199Z,85.44
2019-01-16T05:59:48.373Z,85.19
2019-01-16T06:00:46.975Z,84.92
2019-01-16T06:01:47.413Z,84.81
2019-01-16T06:02:50.673Z,85.23
2019-01-16T06:03:47.206Z,85.33
2019-01-16T06:04:46.635Z,84.88
2019-01-16T06:05:49.098Z,85.33
2019-01-16T06:06:53.328Z,85.39
2019-01-16T06:07:47.998Z,84.78
2019-01-16T06:08:46.709Z,85.02
2019-01-16T06:09:53.260Z,84.99
2019-01-16T06:10:48.012Z,85.13
2019-01-16T06:11:46.094Z,84.99
2019-01-16T06:12:50.763Z,85.33
2019-01-16T06:13:53.465Z,84.88
2019-01-16T06:14:47.496Z,84.72
2019-01-16T06:15:47.360Z,84.88
2019-01-16T06:16:48.996Z,84.81
2019-01-16T06:17:46.015Z,85.02
2019-01-16T06:18:45.966Z,84.88
2019-01-16T06:19:45.953Z,85.09
2019-01-16T06:20:45.961Z,85.30
2019-01-16T06:21:45.954Z,85.13
2019-01-16T06:22:45.957Z,85.13
2019-01-16T06:23:45.894Z,84.72
2019-01-16T06:24:45.931Z,84.20
2019-01-16T06:25:45.918Z,85.02
2019-01-16T06:26:45.891Z,85.02
2019-01-16T06:27:46.874Z,85.02
2019-01-16T06:28:46.517Z,84.92
2019-01-16T06:29:45.860Z,85.23
2019-01-16T06:30:45.979Z,85.02
2019-01-16T06:31:45.815Z,85.02
2019-01-16T06:32:45.915Z,85.02
2019-01-16T06:33:45.793Z,84.92
2019-01-16T06:34:45.783Z,85.33
2019-01-16T06:35:45.765Z,85.02
2019-01-16T06:36:45.818Z,85.33
2019-01-16T06:37:45.753Z,85.54
2019-01-16T06:38:45.739Z,85.44
2019-01-16T06:39:46.369Z,85.33
2019-01-16T06:40:45.748Z,85.75
2019-01-16T06:41:45.768Z,85.33
2019-01-16T06:42:45.702Z,85.95
2019-01-16T06:43:45.809Z,85.85
2019-01-16T06:44:45.788Z,85.64
2019-01-16T06:45:46.011Z,85.75
2019-01-16T06:46:45.667Z,86.26
2019-01-16T06:47:45.636Z,86.36
2019-01-16T06:48:46.016Z,86.26
2019-01-16T06:49:45.680Z,86.16
2019-01-16T06:50:45.957Z,85.95
2019-01-16T06:51:45.651Z,86.26
2019-01-16T06:52:45.635Z,85.95
2019-01-16T06:53:45.623Z,85.95
2019-01-16T06:54:45.686Z,86.26
2019-01-16T06:55:45.656Z,86.57
2019-01-16T06:56:45.700Z,86.26
2019-01-16T06:57:45.671Z,86.36
2019-01-16T06:58:46.374Z,86.26
2019-01-16T06:59:45.727Z,86.05
2019-01-16T07:00:45.525Z,85.95
2019-01-16T07:01:45.620Z,86.36
2019-01-16T07:02:45.708Z,87.08
2019-01-16T07:03:45.518Z,85.95
2019-01-16T07:04:45.554Z,86.47
2019-01-16T07:05:45.524Z,86.57
2019-01-16T07:06:45.657Z,86.47
2019-01-16T07:07:46.503Z,86.36
2019-01-16T07:08:45.474Z,86.51
2019-01-16T07:09:45.446Z,85.95
2019-01-16T07:10:45.564Z,86.05
2019-01-16T07:11:46.374Z,86.26
2019-01-16T07:12:45.686Z,86.05
2019-01-16T07:13:45.920Z,86.26
2019-01-16T07:14:45.385Z,86.20
2019-01-16T07:15:45.401Z,86.30
2019-01-16T07:16:45.877Z,86.20
2019-01-16T07:17:45.333Z,85.95
2019-01-16T07:18:45.367Z,85.95
2019-01-16T07:19:45.475Z,86.41
2019-01-16T07:20:45.342Z,86.47
2019-01-16T07:21:45.340Z,86.05
2019-01-16T07:22:45.342Z,86.26
2019-01-16T07:23:45.275Z,86.26
2019-01-16T07:24:45.314Z,86.88
2019-01-16T07:25:45.305Z,87.29
2019-01-16T07:26:45.262Z,86.78
2019-01-16T07:27:45.259Z,86.26
2019-01-16T07:28:45.280Z,86.36
2019-01-16T07:29:45.203Z,86.68
2019-01-16T07:30:45.382Z,86.68
2019-01-16T07:31:45.217Z,86.36
2019-01-16T07:32:46.734Z,86.78
2019-01-16T07:33:45.312Z,86.78
2019-01-16T07:34:45.261Z,87.19
2019-01-16T07:35:45.217Z,87.23
2019-01-16T07:36:45.155Z,87.40
2019-01-16T07:37:45.176Z,87.34
2019-01-16T07:38:45.273Z,87.54
2019-01-16T07:39:45.518Z,87.44
2019-01-16T07:40:45.146Z,87.74
2019-01-16T07:41:45.106Z,87.95
2019-01-16T07:42:46.883Z,87.85
2019-01-16T07:43:45.144Z,88.37
2019-01-16T07:44:45.053Z,88.47
2019-01-16T07:45:45.095Z,88.57
2019-01-16T07:46:45.086Z,88.78
2019-01-16T07:47:45.059Z,89.40
2019-01-16T07:48:45.028Z,89.40
2019-01-16T07:49:45.026Z,88.71
2019-01-16T07:50:52.982Z,89.40
2019-01-16T07:51:45.002Z,87.74
2019-01-16T07:52:45.209Z,88.10
2019-01-16T07:53:45.008Z,87.74
2019-01-16T07:54:44.949Z,88.37
2019-01-16T07:55:44.981Z,87.85
2019-01-16T07:56:44.949Z,87.74
2019-01-16T07:57:44.918Z,87.44
2019-01-16T07:58:44.906Z,87.74
2019-01-16T07:59:44.902Z,87.85
2019-01-16T08:00:44.897Z,87.74
2019-01-16T08:01:44.972Z,87.65
2019-01-16T08:02:44.888Z,87.89
2019-01-16T08:03:44.915Z,88.82
2019-01-16T08:04:44.909Z,88.71
2019-01-16T08:05:44.867Z,88.68
2019-01-16T08:06:45.227Z,87.89
2019-01-16T08:07:44.846Z,88.68
2019-01-16T08:08:44.903Z,89.54
2019-01-16T08:09:44.919Z,89.40
2019-01-16T08:10:45.401Z,88.92
2019-01-16T08:11:44.783Z,89.13
2019-01-16T08:12:44.813Z,89.13
2019-01-16T08:13:44.797Z,89.44
2019-01-16T08:14:44.736Z,88.61
2019-01-16T08:15:44.835Z,89.23
2019-01-16T08:16:44.941Z,89.03
2019-01-16T08:17:44.769Z,89.03
2019-01-16T08:18:44.729Z,88.51
2019-01-16T08:19:44.737Z,89.13
2019-01-16T08:20:44.693Z,88.68
2019-01-16T08:21:44.693Z,87.95
2019-01-16T08:22:44.660Z,88.51
2019-01-16T08:23:44.761Z,87.89
2019-01-16T08:24:44.896Z,87.99
2019-01-16T08:25:44.682Z,87.65
2019-01-16T08:26:45.534Z,88.31
2019-01-16T08:27:44.623Z,87.85
2019-01-16T08:28:44.705Z,87.34
2019-01-16T08:29:44.648Z,87.34
2019-01-16T08:30:44.779Z,87.68
2019-01-16T08:31:44.616Z,87.23
2019-01-16T08:32:44.766Z,86.92
2019-01-16T08:33:44.600Z,87.54
2019-01-16T08:34:44.563Z,86.92
2019-01-16T08:35:44.748Z,87.02
2019-01-16T08:36:44.523Z,87.02
2019-01-16T08:37:44.724Z,87.02
2019-01-16T08:38:44.518Z,87.13
2019-01-16T08:39:45.012Z,86.30
2019-01-16T08:40:44.505Z,86.71
2019-01-16T08:41:44.474Z,86.82
2019-01-16T08:42:44.530Z,87.02
2019-01-16T08:43:44.442Z,87.02
2019-01-16T08:44:44.450Z,86.61
2019-01-16T08:45:44.502Z,87.23
2019-01-16T08:46:44.605Z,86.71
2019-01-16T08:47:44.458Z,86.41
2019-01-16T08:48:44.477Z,85.99
2019-01-16T08:49:44.520Z,86.20
2019-01-16T08:50:44.390Z,86.20
2019-01-16T08:51:44.438Z,86.26
2019-01-16T08:52:44.399Z,85.58
2019-01-16T08:53:44.367Z,85.95
2019-01-16T08:54:44.417Z,86.36
2019-01-16T08:55:44.380Z,86.41
2019-01-16T08:56:44.419Z,86.36
2019-01-16T08:57:44.375Z,86.57
2019-01-16T08:58:44.340Z,86.26
2019-01-16T08:59:44.287Z,86.26
2019-01-16T09:00:44.351Z,86.26
2019-01-16T09:01:44.298Z,85.85
2019-01-16T09:02:44.325Z,86.36
2019-01-16T09:03:44.493Z,86.36
2019-01-16T09:04:44.278Z,86.36
2019-01-16T09:05:44.335Z,85.95
2019-01-16T09:06:44.263Z,86.57
2019-01-16T09:07:44.440Z,86.41
2019-01-16T09:08:44.202Z,86.26
2019-01-16T09:09:44.170Z,86.05
2019-01-16T09:10:44.167Z,86.16
2019-01-16T09:11:44.187Z,86.05
2019-01-16T09:12:44.220Z,86.16
2019-01-16T09:13:44.423Z,85.95
2019-01-16T09:14:44.122Z,87.29
2019-01-16T09:15:44.487Z,87.08
2019-01-16T09:16:44.140Z,87.08
2019-01-16T09:17:44.209Z,87.34
2019-01-16T09:18:44.251Z,87.81
2019-01-16T09:19:44.191Z,87.71
2019-01-16T09:20:45.041Z,87.71
2019-01-16T09:21:44.094Z,87.92
2019-01-16T09:22:45.042Z,88.64
2019-01-16T09:23:44.038Z,87.40
2019-01-16T09:24:44.051Z,86.88
2019-01-16T09:25:44.684Z,87.50
2019-01-16T09:26:44.059Z,87.81
2019-01-16T09:27:44.109Z,87.60
2019-01-16T09:28:44.052Z,88.12
2019-01-16T09:29:44.074Z,88.74
2019-01-16T09:30:44.947Z,88.32
2019-01-16T09:31:43.977Z,87.71
2019-01-16T09:32:43.995Z,88.26
2019-01-16T09:33:44.017Z,88.64
2019-01-16T09:34:44.414Z,88.74
2019-01-16T09:35:43.925Z,88.22
2019-01-16T09:36:43.970Z,87.81
2019-01-16T09:37:43.912Z,88.64
2019-01-16T09:38:44.002Z,88.22
2019-01-16T09:39:43.909Z,88.43
2019-01-16T09:40:43.916Z,87.92
2019-01-16T09:41:43.855Z,88.74
2019-01-16T09:42:43.941Z,88.74
2019-01-16T09:43:43.867Z,88.64
2019-01-16T09:44:43.914Z,88.84
2019-01-16T09:45:43.870Z,88.43
2019-01-16T09:46:43.859Z,88.43
2019-01-16T09:47:43.854Z,89.15
2019-01-16T09:48:43.895Z,88.84
2019-01-16T09:49:43.793Z,87.29
2019-01-16T09:50:47.787Z,87.81
2019-01-16T09:51:43.802Z,87.19
2019-01-16T09:52:43.810Z,87.71
2019-01-16T09:53:43.865Z,88.22
2019-01-16T09:54:43.720Z,86.98
2019-01-16T09:55:43.749Z,87.29
2019-01-16T09:56:43.681Z,86.98
2019-01-16T09:57:43.854Z,87.50
2019-01-16T09:58:43.731Z,86.68
2019-01-16T09:59:43.710Z,86.98
2019-01-16T10:00:43.849Z,86.98
2019-01-16T10:01:43.654Z,87.46
2019-01-16T10:02:43.635Z,87.05
2019-01-16T10:03:43.617Z,87.26
2019-01-16T10:04:44.539Z,87.19
2019-01-16T10:05:43.709Z,86.94
2019-01-16T10:06:43.731Z,86.84
2019-01-16T10:07:43.883Z,86.02
2019-01-16T10:08:43.566Z,86.02
2019-01-16T10:09:43.713Z,85.50
2019-01-16T10:10:43.604Z,85.30
2019-01-16T10:11:43.612Z,85.39
2019-01-16T10:12:43.546Z,85.30
2019-01-16T10:13:43.659Z,85.71
2019-01-16T10:14:43.562Z,85.09
2019-01-16T10:15:43.463Z,85.71
2019-01-16T10:16:43.506Z,84.99
2019-01-16T10:17:43.763Z,85.19
2019-01-16T10:18:43.552Z,84.78
2019-01-16T10:19:43.494Z,85.19
2019-01-16T10:20:46.137Z,85.09
2019-01-16T10:21:43.491Z,84.88
2019-01-16T10:22:43.417Z,85.25
2019-01-16T10:23:43.435Z,84.99
2019-01-16T10:24:43.395Z,84.57
2019-01-16T10:25:43.368Z,84.36
2019-01-16T10:26:43.507Z,84.47
2019-01-16T10:27:43.485Z,84.27
2019-01-16T10:28:43.461Z,84.16
2019-01-16T10:29:43.367Z,84.67
2019-01-16T10:30:43.454Z,84.36
2019-01-16T10:31:43.374Z,84.36
2019-01-16T10:32:43.330Z,83.50
2019-01-16T10:33:43.341Z,83.61
2019-01-16T10:34:43.360Z,83.75
2019-01-16T10:35:43.314Z,83.81
2019-01-16T10:36:43.321Z,83.75
2019-01-16T10:37:43.305Z,83.64
2019-01-16T10:38:43.279Z,83.64
2019-01-16T10:39:43.294Z,84.16
2019-01-16T10:40:43.303Z,84.27
2019-01-16T10:41:43.232Z,84.16
2019-01-16T10:42:43.272Z,84.06
2019-01-16T10:43:43.227Z,83.71
2019-01-16T10:44:43.220Z,83.81
2019-01-16T10:45:43.263Z,83.29
2019-01-16T10:46:43.323Z,82.89
2019-01-16T10:47:43.171Z,83.23
2019-01-16T10:48:49.738Z,83.19
2019-01-16T10:49:44.293Z,82.89
2019-01-16T10:50:43.269Z,82.68
2019-01-16T10:51:43.172Z,82.89
2019-01-16T10:52:43.213Z,82.68
2019-01-16T10:53:43.079Z,83.09
2019-01-16T10:54:43.080Z,82.37
2019-01-16T10:55:43.182Z,82.89
2019-01-16T10:56:43.097Z,82.89
2019-01-16T10:57:43.118Z,82.78
2019-01-16T10:58:43.050Z,82.57
2019-01-16T10:59:43.033Z,82.10
2019-01-16T11:00:43.035Z,81.96
2019-01-16T11:01:43.073Z,82.57
2019-01-16T11:02:43.044Z,82.37
2019-01-16T11:03:43.058Z,82.57
2019-01-16T11:04:42.953Z,82.68
2019-01-16T11:05:42.987Z,82.47
2019-01-16T11:06:42.975Z,83.09
2019-01-16T11:07:43.427Z,82.26
2019-01-16T11:08:42.926Z,82.06
2019-01-16T11:09:43.128Z,81.85
2019-01-16T11:10:43.118Z,82.26
2019-01-16T11:11:43.031Z,82.20
2019-01-16T11:12:43.007Z,82.16
2019-01-16T11:13:43.054Z,81.85
2019-01-16T11:14:43.033Z,82.26
2019-01-16T11:15:43.428Z,81.96
2019-01-16T11:16:42.874Z,82.26
2019-01-16T11:17:43.435Z,82.57
2019-01-16T11:18:42.987Z,82.16
2019-01-16T11:19:43.054Z,81.96
2019-01-16T11:20:42.862Z,81.96
2019-01-16T11:21:42.898Z,81.96
2019-01-16T11:22:43.432Z,82.06
2019-01-16T11:23:43.430Z,82.26
2019-01-16T11:24:42.812Z,82.12
2019-01-16T11:25:42.799Z,81.13
2019-01-16T11:26:43.164Z,82.16
2019-01-16T11:27:43.431Z,82.12
2019-01-16T11:28:42.872Z,82.12
2019-01-16T11:29:42.736Z,82.12
2019-01-16T11:30:42.755Z,81.92
2019-01-16T11:31:42.690Z,81.81
2019-01-16T11:32:42.689Z,81.71
2019-01-16T11:33:42.749Z,82.02
2019-01-16T11:34:42.688Z,82.02
2019-01-16T11:35:42.662Z,81.92
2019-01-16T11:36:42.674Z,81.81
2019-01-16T11:37:42.744Z,81.71
2019-01-16T11:38:43.443Z,81.30
2019-01-16T11:39:43.433Z,81.30
2019-01-16T11:40:42.649Z,81.20
2019-01-16T11:41:42.650Z,81.30
2019-01-16T11:42:42.651Z,80.79
2019-01-16T11:43:42.662Z,80.75
2019-01-16T11:44:42.574Z,80.02
2019-01-16T11:45:43.546Z,79.93
2019-01-16T11:46:42.714Z,80.23
2019-01-16T11:47:42.630Z,79.93
2019-01-16T11:48:42.730Z,80.13
2019-01-16T11:49:42.561Z,80.19
2019-01-16T11:50:42.536Z,80.02
2019-01-16T11:51:42.507Z,80.09
2019-01-16T11:52:42.532Z,80.09
2019-01-16T11:53:42.520Z,79.93
2019-01-16T11:54:42.937Z,79.93
2019-01-16T11:55:42.525Z,80.13
2019-01-16T11:56:43.045Z,79.96
2019-01-16T11:57:42.936Z,79.82
2019-01-16T11:58:42.480Z,79.96
2019-01-16T11:59:42.477Z,80.37
2019-01-16T12:00:42.466Z,80.02
2019-01-16T12:01:42.943Z,80.23
2019-01-16T12:02:42.429Z,80.13
2019-01-16T12:03:42.462Z,80.33
2019-01-16T12:04:42.549Z,79.93
2019-01-16T12:05:42.515Z,80.16
2019-01-16T12:06:42.328Z,80.23
2019-01-16T12:07:42.341Z,80.23
2019-01-16T12:08:42.325Z,79.75
2019-01-16T12:09:42.301Z,80.27
2019-01-16T12:10:42.347Z,79.86
2019-01-16T12:11:42.287Z,80.47
2019-01-16T12:12:42.296Z,80.06
2019-01-16T12:13:42.371Z,80.68
2019-01-16T12:14:42.365Z,80.27
2019-01-16T12:15:42.939Z,80.47
2019-01-16T12:16:42.292Z,79.75
2019-01-16T12:17:42.295Z,79.96
2019-01-16T12:18:42.227Z,80.06
2019-01-16T12:19:42.946Z,80.16
2019-01-16T12:20:42.269Z,79.96
2019-01-16T12:21:42.949Z,80.47
2019-01-16T12:22:43.103Z,79.86
2019-01-16T12:23:42.160Z,79.82
2019-01-16T12:24:42.241Z,79.82
2019-01-16T12:25:42.282Z,80.23
2019-01-16T12:26:42.210Z,79.82
2019-01-16T12:27:42.149Z,79.30
2019-01-16T12:28:42.124Z,79.86
2019-01-16T12:29:42.271Z,80.23
2019-01-16T12:30:42.151Z,80.27
2019-01-16T12:31:42.119Z,79.34
2019-01-16T12:32:42.075Z,79.75
2019-01-16T12:33:42.041Z,79.61
2019-01-16T12:34:42.079Z,79.93
2019-01-16T12:35:42.036Z,79.72
2019-01-16T12:36:42.044Z,80.33
2019-01-16T12:37:41.994Z,79.82
2019-01-16T12:38:41.992Z,79.93
2019-01-16T12:39:41.967Z,78.79
2019-01-16T12:40:42.041Z,79.61
2019-01-16T12:41:41.933Z,79.93
2019-01-16T12:42:43.311Z,79.30
2019-01-16T12:43:41.938Z,79.10
2019-01-16T12:44:41.903Z,79.30
2019-01-16T12:45:41.893Z,79.14
2019-01-16T12:46:41.941Z,79.34
2019-01-16T12:47:41.918Z,78.93
2019-01-16T12:48:41.864Z,78.41
2019-01-16T12:49:41.846Z,79.34
2019-01-16T12:50:41.891Z,79.10
2019-01-16T12:51:41.873Z,79.55
2019-01-16T12:52:41.838Z,79.14
2019-01-16T12:53:41.833Z,79.86
2019-01-16T12:54:41.836Z,79.44
2019-01-16T12:55:41.828Z,79.72
2019-01-16T12:56:41.791Z,79.86
2019-01-16T12:57:41.796Z,79.86
2019-01-16T12:58:41.784Z,79.86